Time;durP1;ratioP1;P1;durP2;ratioP2;P2;SDS_P1;SDS_P2;PMS_P1;PMS_P2;Temp;Humidity;BMP_temperature;BMP_pressure;BME280_temperature;BME280_humidity;BME280_pressure;Samples;Min_cycle;Max_cycle;Signal;HPM_P1;HPM_P2
2022/02/16 00:03:42;;;;;;;;;;;;;;;21.80;24.83;95520.69;10400701;28;1909;-48
2022/02/16 00:08:43;;;;;;;;;;;;;;;21.80;24.91;95519.91;10395496;28;1877;-47
2022/02/16 00:13:44;;;;;;;;;;;;;;;21.80;24.57;95512.00;10400689;28;1822;-52
2022/02/16 00:18:44;;;;;;;;;;;;;;;21.81;25.03;95510.91;10397353;28;1781;-47
2022/02/16 00:23:44;;;;;;;;;;;;;;;21.79;24.75;95516.47;10398432;28;2249;-48
2022/02/16 00:28:45;;;;;;;;;;;;;;;21.80;24.55;95507.47;10389700;28;2067;-47
2022/02/16 00:33:45;;;;;;;;;;;;;;;21.78;24.56;95496.44;10393532;28;1760;-51
2022/02/16 00:38:45;;;;;;;;;;;;;;;21.79;24.81;95486.66;10390643;28;1787;-49
2022/02/16 00:43:45;;;;;;;;;;;;;;;21.79;25.08;95486.66;10394863;28;1914;-48
2022/02/16 00:48:47;;;;;;;;;;;;;;;21.79;24.61;95481.41;10389647;28;1797;-50
2022/02/16 00:53:47;;;;;;;;;;;;;;;21.79;24.92;95479.53;10399520;28;1797;-52
2022/02/16 00:58:48;;;;;;;;;;;;;;;21.76;24.47;95477.47;10389562;28;1837;-51
2022/02/16 01:03:49;;;;;;;;;;;;;;;21.78;24.74;95474.56;10393223;28;1902;-47
2022/02/16 01:08:50;;;;;;;;;;;;;;;21.78;24.64;95466.66;10392688;28;1944;-46
2022/02/16 01:13:51;;;;;;;;;;;;;;;21.77;24.68;95457.94;10399578;28;1785;-48
2022/02/16 01:18:51;;;;;;;;;;;;;;;21.76;24.47;95464.28;10386002;28;1790;-48
2022/02/16 01:23:52;;;;;;;;;;;;;;;21.76;24.38;95443.16;10391338;28;1963;-45
2022/02/16 01:28:52;;;;;;;;;;;;;;;21.76;24.49;95443.16;10382652;28;1903;-46
2022/02/16 01:33:53;;;;;;;;;;;;;;;21.75;24.56;95446.09;10398014;28;1793;-52
2022/02/16 01:38:53;;;;;;;;;;;;;;;21.75;24.62;95431.06;10389229;28;1837;-49
2022/02/16 01:43:53;;;;;;;;;;;;;;;21.75;24.47;95427.63;10392727;28;1898;-47
2022/02/16 01:48:54;;;;;;;;;;;;;;;21.73;24.45;95416.59;10389575;28;1852;-46
2022/02/16 01:53:54;;;;;;;;;;;;;;;21.74;24.61;95420.81;10396707;28;1778;-49
2022/02/16 01:58:55;;;;;;;;;;;;;;;21.74;24.72;95410.25;10378638;28;1994;-49
2022/02/16 02:03:55;;;;;;;;;;;;;;;21.72;24.64;95396.56;10392917;28;1985;-48
2022/02/16 02:08:56;;;;;;;;;;;;;;;21.71;24.32;95392.34;10383335;28;1918;-50
2022/02/16 02:13:56;;;;;;;;;;;;;;;21.71;24.43;95390.50;10390631;28;2025;-48
2022/02/16 02:18:58;;;;;;;;;;;;;;;21.71;24.31;95384.44;10388069;28;1932;-48
2022/02/16 02:23:59;;;;;;;;;;;;;;;21.70;24.44;95382.88;10390410;28;2018;-46
2022/02/16 02:29:01;;;;;;;;;;;;;;;21.70;24.14;95380.25;10388840;28;1859;-45
2022/02/16 02:34:01;;;;;;;;;;;;;;;21.69;24.29;95373.41;10401510;28;2091;-47
2022/02/16 02:39:01;;;;;;;;;;;;;;;21.70;24.31;95367.06;10398840;28;1905;-46
2022/02/16 02:44:02;;;;;;;;;;;;;;;21.69;24.37;95368.13;10404002;28;1980;-48
2022/02/16 02:49:03;;;;;;;;;;;;;;;21.68;24.32;95359.41;10399265;28;1957;-46
2022/02/16 02:54:03;;;;;;;;;;;;;;;21.68;24.20;95353.34;10401298;28;1941;-48
2022/02/16 02:59:04;;;;;;;;;;;;;;;21.68;24.34;95342.78;10393606;28;2087;-46
2022/02/16 03:04:04;;;;;;;;;;;;;;;21.67;24.36;95338.59;10391487;28;2322;-45
2022/02/16 03:09:04;;;;;;;;;;;;;;;21.67;24.39;95343.88;10398897;28;1952;-51
2022/02/16 03:14:05;;;;;;;;;;;;;;;21.67;24.16;95331.47;10394718;28;1910;-46
2022/02/16 03:19:06;;;;;;;;;;;;;;;21.67;24.29;95328.06;10395896;28;1949;-48
2022/02/16 03:24:07;;;;;;;;;;;;;;;21.67;24.50;95320.94;10398671;28;1971;-47
2022/02/16 03:29:07;;;;;;;;;;;;;;;21.66;23.98;95318.56;10405837;28;1991;-46
2022/02/16 03:34:08;;;;;;;;;;;;;;;21.67;24.41;95314.88;10413249;28;2301;-49
2022/02/16 03:39:08;;;;;;;;;;;;;;;21.65;24.17;95312.53;10405933;28;2177;-46
2022/02/16 03:44:09;;;;;;;;;;;;;;;21.66;24.27;95308.00;10413255;28;1993;-50
2022/02/16 03:49:09;;;;;;;;;;;;;;;21.67;24.31;95310.38;10412935;28;1796;-47
2022/02/16 03:54:09;;;;;;;;;;;;;;;21.67;24.39;95304.31;10406912;28;2077;-46
2022/02/16 03:59:10;;;;;;;;;;;;;;;21.65;24.18;95301.19;10410480;28;2010;-50
2022/02/16 04:04:10;;;;;;;;;;;;;;;21.65;24.06;95295.91;10416504;28;2009;-53
2022/02/16 04:09:12;;;;;;;;;;;;;;;21.65;24.29;95296.69;10404926;28;1987;-52
2022/02/16 04:14:12;;;;;;;;;;;;;;;21.63;24.19;95288.31;10429700;28;2313;-48
2022/02/16 04:19:13;;;;;;;;;;;;;;;21.64;24.23;95289.84;10412763;28;1881;-48
2022/02/16 04:24:13;;;;;;;;;;;;;;;21.64;24.46;95284.56;10415765;28;2023;-51
2022/02/16 04:29:14;;;;;;;;;;;;;;;21.63;24.01;95271.69;10407819;28;1946;-49
2022/02/16 04:34:15;;;;;;;;;;;;;;;21.65;24.16;95272.16;10415370;28;2022;-50
2022/02/16 04:39:16;;;;;;;;;;;;;;;21.64;24.51;95255.56;10410805;28;1801;-53
2022/02/16 04:44:16;;;;;;;;;;;;;;;21.63;23.71;95261.13;10413938;28;1994;-48
2022/02/16 04:49:17;;;;;;;;;;;;;;;21.63;23.99;95258.50;10409034;28;1982;-52
2022/02/16 04:54:17;;;;;;;;;;;;;;;21.62;24.01;95241.09;10409961;28;2132;-50
2022/02/16 04:59:17;;;;;;;;;;;;;;;21.62;24.10;95233.97;10415600;28;1941;-51
2022/02/16 05:04:18;;;;;;;;;;;;;;;21.61;23.77;95232.41;10409155;28;2093;-49
2022/02/16 05:09:18;;;;;;;;;;;;;;;21.63;24.25;95224.22;10410628;28;1894;-49
2022/02/16 05:14:18;;;;;;;;;;;;;;;21.62;24.07;95220.00;10403762;28;1962;-51
2022/02/16 05:19:19;;;;;;;;;;;;;;;21.62;24.18;95222.63;10404745;28;1955;-51
2022/02/16 05:24:20;;;;;;;;;;;;;;;21.62;24.06;95222.63;10414411;28;1946;-52
2022/02/16 05:29:20;;;;;;;;;;;;;;;21.62;24.13;95206.81;10412435;28;1918;-51
2022/02/16 05:34:20;;;;;;;;;;;;;;;21.61;24.15;95194.69;10404720;28;2022;-48
2022/02/16 05:39:21;;;;;;;;;;;;;;;21.60;23.87;95193.13;10410362;28;1974;-50
2022/02/16 05:44:21;;;;;;;;;;;;;;;21.61;24.04;95189.44;10414644;28;1977;-51
2022/02/16 05:49:21;;;;;;;;;;;;;;;21.61;24.00;95186.78;10413997;28;1912;-47
2022/02/16 05:54:22;;;;;;;;;;;;;;;21.61;24.01;95176.25;10413375;28;1870;-52
2022/02/16 05:59:22;;;;;;;;;;;;;;;21.61;24.12;95179.66;10406202;28;1811;-53
2022/02/16 06:04:22;;;;;;;;;;;;;;;21.60;23.78;95175.44;10406833;28;1942;-48
2022/02/16 06:09:23;;;;;;;;;;;;;;;21.60;23.69;95177.31;10408795;28;2034;-49
2022/02/16 06:14:23;;;;;;;;;;;;;;;21.60;23.98;95166.75;10406576;28;1854;-48
2022/02/16 06:19:24;;;;;;;;;;;;;;;21.60;23.96;95161.47;10407607;28;1932;-49
2022/02/16 06:24:24;;;;;;;;;;;;;;;21.59;23.90;95158.09;10413067;28;1975;-46
2022/02/16 06:29:25;;;;;;;;;;;;;;;21.58;23.87;95150.44;10408591;28;2041;-49
2022/02/16 06:34:26;;;;;;;;;;;;;;;21.59;23.84;95144.09;10412645;28;1963;-50
2022/02/16 06:39:26;;;;;;;;;;;;;;;21.60;24.00;95145.66;10409737;28;1946;-46
2022/02/16 06:44:26;;;;;;;;;;;;;;;21.59;23.72;95138.84;10396209;28;1906;-46
2022/02/16 06:49:27;;;;;;;;;;;;;;;21.60;24.04;95138.53;10403388;28;2006;-52
2022/02/16 06:54:27;;;;;;;;;;;;;;;21.60;23.92;95138.53;10410906;28;1984;-50
2022/02/16 06:59:28;;;;;;;;;;;;;;;21.61;24.05;95147.22;10400709;28;1935;-48
2022/02/16 07:04:28;;;;;;;;;;;;;;;21.65;24.89;95137.66;10407169;28;2326;-49
2022/02/16 07:09:29;;;;;;;;;;;;;;;21.66;24.81;95124.16;10411085;28;1929;-48
2022/02/16 07:14:29;;;;;;;;;;;;;;;21.66;25.34;95126.81;10409218;28;1941;-49
2022/02/16 07:19:30;;;;;;;;;;;;;;;21.67;25.22;95119.69;10413217;28;1944;-50
2022/02/16 07:24:30;;;;;;;;;;;;;;;21.65;24.76;95119.97;10415983;28;1930;-47
2022/02/16 07:29:31;;;;;;;;;;;;;;;21.70;25.22;95108.56;10403058;28;2134;-50
2022/02/16 07:34:32;;;;;;;;;;;;;;;21.69;25.23;95101.69;10415169;28;1995;-51
2022/02/16 07:39:33;;;;;;;;;;;;;;;21.70;25.69;95108.56;10405956;28;1933;-48
2022/02/16 07:44:33;;;;;;;;;;;;;;;21.70;25.68;95103.28;10414023;28;2051;-49
2022/02/16 07:49:34;;;;;;;;;;;;;;;21.69;25.89;95094.56;10411778;28;1790;-49
2022/02/16 07:54:34;;;;;;;;;;;;;;;21.68;25.56;95100.91;10403887;28;1927;-48
2022/02/16 07:59:35;;;;;;;;;;;;;;;21.68;25.01;95089.56;10392404;28;2004;-47
2022/02/16 08:04:36;;;;;;;;;;;;;;;21.68;25.50;95079.81;10407605;28;2275;-51
2022/02/16 08:09:36;;;;;;;;;;;;;;;21.70;25.53;95071.63;10407792;28;2054;-46
2022/02/16 08:14:37;;;;;;;;;;;;;;;21.70;25.47;95079.53;10415035;28;1944;-47
2022/02/16 08:19:37;;;;;;;;;;;;;;;21.70;25.54;95071.63;10408853;28;1922;-47
2022/02/16 08:24:37;;;;;;;;;;;;;;;21.70;25.45;95059.19;10414352;28;1918;-48
2022/02/16 08:29:38;;;;;;;;;;;;;;;21.70;25.56;95056.56;10410086;28;1879;-47
2022/02/16 08:34:40;;;;;;;;;;;;;;;21.70;25.45;95056.56;10405312;28;1839;-51
2022/02/16 08:39:40;;;;;;;;;;;;;;;21.70;25.35;95050.53;10409867;28;1932;-47
2022/02/16 08:44:41;;;;;;;;;;;;;;;21.69;25.16;95043.66;10405832;28;1970;-49
2022/02/16 08:49:44;;;;;;;;;;;;;;;21.70;24.80;95029.41;10406012;28;2329;-47
2022/02/16 08:54:44;;;;;;;;;;;;;;;21.70;25.09;95035.44;10400768;28;1909;-50
2022/02/16 08:59:45;;;;;;;;;;;;;;;21.76;24.76;95023.72;10395616;28;1905;-49
2022/02/16 09:04:46;;;;;;;;;;;;;;;21.74;25.04;95019.81;10409589;28;1973;-50
2022/02/16 09:09:46;;;;;;;;;;;;;;;21.72;25.19;95009.56;10391409;28;1889;-51
2022/02/16 09:14:46;;;;;;;;;;;;;;;21.70;24.97;95009.06;10405924;28;1869;-47
2022/02/16 09:19:47;;;;;;;;;;;;;;;21.69;24.92;95004.09;10400803;28;1882;-48
2022/02/16 09:24:47;;;;;;;;;;;;;;;21.67;24.80;95003.63;10411288;28;1906;-51
2022/02/16 09:29:48;;;;;;;;;;;;;;;21.68;24.68;94991.97;10401785;28;1837;-49
2022/02/16 09:34:51;;;;;;;;;;;;;;;21.66;24.68;94983.59;10397350;28;1818;-47
2022/02/16 09:39:51;;;;;;;;;;;;;;;21.67;24.77;94980.66;10407681;28;1914;-47
2022/02/16 09:45:01;;;;;;;;;;;;;;;21.68;25.27;94968.25;10405177;28;1787;-46
2022/02/16 09:50:02;;;;;;;;;;;;;;;21.69;24.85;94959.25;10406812;28;1934;-48
2022/02/16 09:55:02;;;;;;;;;;;;;;;21.67;24.73;94949.03;10404276;28;1804;-51
2022/02/16 10:00:04;;;;;;;;;;;;;;;21.69;24.53;94946.06;10408312;28;1963;-49
2022/02/16 10:05:05;;;;;;;;;;;;;;;21.67;24.63;94937.69;10398742;28;2517;-49
2022/02/16 10:10:09;;;;;;;;;;;;;;;21.67;24.89;94937.69;10404873;28;2131;-50
2022/02/16 10:15:11;;;;;;;;;;;;;;;21.67;24.74;94932.41;10395563;28;1862;-49
2022/02/16 10:20:12;;;;;;;;;;;;;;;21.66;24.85;94931.63;10404074;28;1977;-50
2022/02/16 10:25:13;;;;;;;;;;;;;;;21.76;25.14;94917.44;10399690;28;1868;-54
2022/02/16 10:30:17;;;;;;;;;;;;;;;21.76;25.32;94906.88;10405929;28;1948;-51
2022/02/16 10:35:17;;;;;;;;;;;;;;;21.76;24.71;94915.53;10382693;28;1853;-51
2022/02/16 10:40:17;;;;;;;;;;;;;;;21.75;24.62;94923.78;10393629;28;1914;-49
2022/02/16 10:45:21;;;;;;;;;;;;;;;21.76;24.75;94928.75;10407291;28;1841;-48
2022/02/16 10:50:25;;;;;;;;;;;;;;;21.78;24.88;94923.19;10412488;28;1972;-53
2022/02/16 10:55:45;;;;;;;;;;;;;;;21.77;24.50;94911.84;10413866;28;1837;-55
2022/02/16 11:00:46;;;;;;;;;;;;;;;21.76;24.36;94917.44;10399040;28;1907;-54
2022/02/16 11:05:46;;;;;;;;;;;;;;;21.76;24.57;94914.78;10406846;28;2342;-51
2022/02/16 11:10:46;;;;;;;;;;;;;;;21.78;24.75;94910.00;10395388;28;1878;-47
2022/02/16 11:15:50;;;;;;;;;;;;;;;21.79;24.43;94903.63;10413617;28;1815;-53
2022/02/16 11:21:09;;;;;;;;;;;;;;;21.80;24.33;94903.31;10411966;28;1923;-52
2022/02/16 11:26:28;;;;;;;;;;;;;;;21.79;24.43;94903.63;10413916;28;1793;-54
2022/02/16 11:31:29;;;;;;;;;;;;;;;21.81;24.55;94899.63;10411118;28;1853;-48
2022/02/16 11:36:50;;;;;;;;;;;;;;;21.83;24.58;94899.34;10414681;28;2160;-53
2022/02/16 11:41:53;;;;;;;;;;;;;;;21.84;24.65;94885.84;10413581;28;1918;-53
2022/02/16 11:46:59;;;;;;;;;;;;;;;21.86;24.54;94881.03;10393945;28;1790;-52
2022/02/16 11:51:59;;;;;;;;;;;;;;;21.83;24.86;94872.94;10412230;28;1801;-51
2022/02/16 11:57:19;;;;;;;;;;;;;;;21.82;24.40;94863.50;10400444;28;1983;-51
2022/02/16 12:02:20;;;;;;;;;;;;;;;21.80;24.58;94855.06;10415440;28;1944;-49
2022/02/16 12:07:30;;;;;;;;;;;;;;;21.77;24.77;94845.91;10407951;28;1861;-55
2022/02/16 12:12:31;;;;;;;;;;;;;;;21.92;26.02;94836.06;10426059;28;1776;-51
2022/02/16 12:17:31;;;;;;;;;;;;;;;21.90;25.84;94827.66;10413302;28;1902;-48
2022/02/16 12:22:36;;;;;;;;;;;;;;;21.91;26.03;94822.09;10409718;28;1906;-47
2022/02/16 12:27:36;;;;;;;;;;;;;;;21.92;26.02;94831.56;10409584;28;1700;-52
2022/02/16 12:32:37;;;;;;;;;;;;;;;21.91;25.38;94824.72;10414239;28;1958;-50
2022/02/16 12:37:38;;;;;;;;;;;;;;;21.92;25.05;94805.19;10411060;28;2320;-51
2022/02/16 12:42:42;;;;;;;;;;;;;;;21.88;25.09;94801.59;10413267;28;1931;-53
2022/02/16 12:47:42;;;;;;;;;;;;;;;21.88;25.46;94792.91;10414343;28;1852;-48
2022/02/16 12:52:43;;;;;;;;;;;;;;;21.86;25.09;94780.78;10413949;28;1840;-49
2022/02/16 12:57:45;;;;;;;;;;;;;;;21.86;25.07;94782.66;10405392;28;1899;-50
2022/02/16 13:02:46;;;;;;;;;;;;;;;21.96;25.33;94778.97;10413505;28;1918;-48
2022/02/16 13:07:46;;;;;;;;;;;;;;;21.91;25.34;94790.41;10410726;28;1802;-50
2022/02/16 13:12:48;;;;;;;;;;;;;;;21.88;24.87;94782.34;10410817;28;1809;-52
2022/02/16 13:17:55;;;;;;;;;;;;;;;21.85;24.79;94783.72;10406503;28;2026;-51
2022/02/16 13:22:57;;;;;;;;;;;;;;;21.84;24.70;94766.34;10403161;28;1902;-50
2022/02/16 13:28:01;;;;;;;;;;;;;;;21.85;24.58;94760.75;10407250;28;1845;-51
2022/02/16 13:33:15;;;;;;;;;;;;;;;21.97;25.33;94748.88;10411338;28;1812;-50
2022/02/16 13:38:23;;;;;;;;;;;;;;;22.01;24.57;94739.25;10407265;28;2334;-55
2022/02/16 13:43:25;;;;;;;;;;;;;;;22.08;25.37;94740.34;10392702;28;1910;-55
2022/02/16 13:48:27;;;;;;;;;;;;;;;22.12;25.83;94730.72;10406269;28;1732;-55
2022/02/16 13:53:31;;;;;;;;;;;;;;;22.19;25.52;94727.66;10413103;28;1773;-53
2022/02/16 13:58:33;;;;;;;;;;;;;;;22.19;25.06;94723.16;10400115;28;1857;-51
2022/02/16 14:03:35;;;;;;;;;;;;;;;22.22;25.35;94706.69;10388894;28;1979;-53
2022/02/16 14:08:35;;;;;;;;;;;;;;;22.23;25.14;94704.81;10409432;28;1851;-49
2022/02/16 14:13:36;;;;;;;;;;;;;;;22.29;26.02;94693.81;10406330;28;1896;-51
2022/02/16 14:18:37;;;;;;;;;;;;;;;22.26;26.17;94712.13;10404334;28;1778;-47
2022/02/16 14:23:37;;;;;;;;;;;;;;;22.18;26.00;94712.88;10413232;28;1980;-53
2022/02/16 14:28:37;;;;;;;;;;;;;;;22.13;26.28;94718.31;10413176;28;1769;-48
2022/02/16 14:33:38;;;;;;;;;;;;;;;22.08;25.85;94699.97;10418208;28;1861;-51
2022/02/16 14:38:39;;;;;;;;;;;;;;;22.07;26.40;94699.19;10423283;28;2300;-59
2022/02/16 14:43:39;;;;;;;;;;;;;;;22.07;26.13;94690.53;10410660;28;1973;-51
2022/02/16 14:48:39;;;;;;;;;;;;;;;22.06;25.70;94689.75;10411281;28;1952;-54
2022/02/16 14:53:40;;;;;;;;;;;;;;;22.06;25.69;94700.28;10413869;28;1852;-51
2022/02/16 14:58:40;;;;;;;;;;;;;;;22.01;25.51;94675.91;10420512;28;1845;-49
2022/02/16 15:03:40;;;;;;;;;;;;;;;21.99;25.15;94668.28;10426997;28;1930;-51
2022/02/16 15:08:41;;;;;;;;;;;;;;;21.99;24.78;94667.53;10413523;28;1876;-51
2022/02/16 15:13:41;;;;;;;;;;;;;;;21.98;25.27;94672.03;10415831;28;1917;-50
2022/02/16 15:18:42;;;;;;;;;;;;;;;22.05;25.46;94677.63;10409586;28;1840;-49
2022/02/16 15:23:42;;;;;;;;;;;;;;;22.08;25.28;94676.22;10414154;28;1952;-49
2022/02/16 15:28:43;;;;;;;;;;;;;;;22.16;25.44;94678.09;10415589;28;1889;-52
2022/02/16 15:33:43;;;;;;;;;;;;;;;22.10;24.98;94674.84;10420277;28;2214;-50
2022/02/16 15:38:46;;;;;;;;;;;;;;;22.08;25.28;94674.38;10399498;28;2879;-48
2022/02/16 15:43:46;;;;;;;;;;;;;;;22.13;25.50;94684.78;10412710;28;1929;-50
2022/02/16 15:48:47;;;;;;;;;;;;;;;22.10;25.20;94690.69;10393186;28;2009;-49
2022/02/16 15:53:47;;;;;;;;;;;;;;;22.27;25.18;94701.28;10390015;28;2072;-50
2022/02/16 15:58:48;;;;;;;;;;;;;;;22.34;25.11;94706.84;10393373;28;1927;-50
2022/02/16 16:03:48;;;;;;;;;;;;;;;22.50;25.60;94707.94;10414197;28;1918;-50
2022/02/16 16:08:48;;;;;;;;;;;;;;;22.57;25.05;94710.13;10411409;28;1958;-48
2022/02/16 16:13:49;;;;;;;;;;;;;;;22.65;24.68;94704.88;10414593;28;1877;-55
2022/02/16 16:18:52;;;;;;;;;;;;;;;22.73;24.33;94703.31;10411466;28;1844;-55
2022/02/16 16:23:53;;;;;;;;;;;;;;;22.78;24.16;94694.47;10411138;28;1902;-49
2022/02/16 16:28:53;;;;;;;;;;;;;;;22.83;24.20;94695.09;10410860;28;1961;-52
2022/02/16 16:33:53;;;;;;;;;;;;;;;22.87;24.74;94682.81;10410261;28;1888;-55
2022/02/16 16:38:54;;;;;;;;;;;;;;;22.88;24.26;94704.69;10412863;28;1803;-50
2022/02/16 16:43:54;;;;;;;;;;;;;;;22.89;24.04;94704.41;10407600;28;1914;-54
2022/02/16 16:48:55;;;;;;;;;;;;;;;22.93;24.40;94691.34;10409511;28;1902;-52
2022/02/16 16:53:55;;;;;;;;;;;;;;;22.95;24.44;94705.81;10414082;28;1874;-56
2022/02/16 16:58:56;;;;;;;;;;;;;;;22.98;24.17;94694.59;10401952;28;1805;-51
2022/02/16 17:03:56;;;;;;;;;;;;;;;22.99;24.16;94719.16;10401619;28;1902;-54
2022/02/16 17:08:56;;;;;;;;;;;;;;;22.98;23.97;94726.31;10408536;28;1780;-52
2022/02/16 17:13:57;;;;;;;;;;;;;;;22.99;23.97;94748.22;10403655;28;1833;-51
2022/02/16 17:18:57;;;;;;;;;;;;;;;23.03;24.30;94752.59;10409285;28;1963;-52
2022/02/16 17:23:57;;;;;;;;;;;;;;;22.99;23.85;94764.09;10380974;28;1983;-52
2022/02/16 17:28:59;;;;;;;;;;;;;;;22.95;23.97;94752.59;10381919;28;1844;-49
2022/02/16 17:34:02;;;;;;;;;;;;;;;22.93;23.85;94738.91;10401092;28;1807;-51
2022/02/16 17:39:02;;;;;;;;;;;;;;;22.92;23.92;94747.91;10401044;28;1912;-49
2022/02/16 17:49:22;;;;;;;;;;;;;;;22.90;23.88;94755.38;10406968;28;1824;-48
2022/02/16 17:54:23;;;;;;;;;;;;;;;22.91;24.00;94757.72;10391813;28;1940;-51
2022/02/16 17:59:23;;;;;;;;;;;;;;;22.97;24.00;94747.75;10370339;28;1848;-49
2022/02/16 18:04:24;;;;;;;;;;;;;;;23.09;24.52;94755.84;10395191;28;1981;-51
2022/02/16 18:09:24;;;;;;;;;;;;;;;23.04;24.00;94740.91;10392377;28;1830;-49
2022/02/16 18:14:25;;;;;;;;;;;;;;;22.96;24.05;94719.78;10390856;28;2314;-49
2022/02/16 18:19:25;;;;;;;;;;;;;;;22.91;24.07;94739.22;10398581;28;1805;-45
2022/02/16 18:24:25;;;;;;;;;;;;;;;22.90;23.93;94732.38;10402641;28;1945;-47
2022/02/16 18:29:26;;;;;;;;;;;;;;;22.89;24.14;94716.84;10402290;28;1861;-49
2022/02/16 18:34:27;;;;;;;;;;;;;;;22.83;24.01;94712.81;10379826;28;1986;-46
2022/02/16 18:39:28;;;;;;;;;;;;;;;22.71;24.40;94725.88;10390383;28;2045;-47
2022/02/16 18:44:30;;;;;;;;;;;;;;;22.61;24.31;94738.28;10397889;28;1906;-49
2022/02/16 18:49:31;;;;;;;;;;;;;;;22.54;24.52;94753.03;10401853;28;1861;-47
2022/02/16 18:54:32;;;;;;;;;;;;;;;22.45;24.60;94747.72;10399417;28;1773;-45
2022/02/16 18:59:32;;;;;;;;;;;;;;;22.39;24.64;94756.88;10376873;22;1898;-55
2022/02/16 19:04:33;;;;;;;;;;;;;;;22.32;24.65;94748.63;10352580;28;2284;-57
2022/02/16 19:09:33;;;;;;;;;;;;;;;22.29;25.00;94746.63;10362469;28;1954;-56
2022/02/16 19:14:34;;;;;;;;;;;;;;;22.26;25.06;94728.75;10363976;28;1899;-57
2022/02/16 19:19:35;;;;;;;;;;;;;;;22.23;24.91;94739.16;10336847;28;2234;-57
2022/02/16 19:24:37;;;;;;;;;;;;;;;22.21;25.19;94726.25;10331437;28;2151;-56
2022/02/16 19:29:37;;;;;;;;;;;;;;;22.20;24.98;94722.06;10364370;28;2174;-54
2022/02/16 19:34:38;;;;;;;;;;;;;;;22.21;25.43;94728.91;10337698;28;1845;-55
2022/02/16 19:39:39;;;;;;;;;;;;;;;22.18;24.85;94716.31;10336250;28;1974;-58
2022/02/16 19:44:39;;;;;;;;;;;;;;;22.15;24.98;94679.97;10343221;28;1957;-58
2022/02/16 19:49:59;;;;;;;;;;;;;;;22.12;25.52;94695.63;10335539;28;2086;-58
2022/02/16 19:55:00;;;;;;;;;;;;;;;22.18;25.83;94684.63;10357459;28;2103;-57
2022/02/16 20:00:01;;;;;;;;;;;;;;;21.98;27.59;94682.59;10351310;28;2003;-57
2022/02/16 20:05:02;;;;;;;;;;;;;;;21.52;28.56;94696.22;10352932;28;1977;-55
2022/02/16 20:10:03;;;;;;;;;;;;;;;21.69;27.28;94684.94;10359088;28;1689;-56
2022/02/16 20:15:04;;;;;;;;;;;;;;;21.80;26.69;94678.31;10351676;28;1528;-58
2022/02/16 20:20:05;;;;;;;;;;;;;;;21.86;26.18;94687.69;10366917;28;1617;-57
2022/02/16 20:25:06;;;;;;;;;;;;;;;21.91;26.43;94676.22;10322702;28;1969;-56
2022/02/16 20:30:07;;;;;;;;;;;;;;;21.95;26.98;94656.81;10365520;28;1833;-56
2022/02/16 20:35:08;;;;;;;;;;;;;;;22.03;26.45;94648.13;10354793;28;1493;-58
2022/02/16 20:40:09;;;;;;;;;;;;;;;22.03;26.33;94645.47;10349786;28;1449;-58
2022/02/16 20:45:09;;;;;;;;;;;;;;;22.06;26.54;94629.03;10374740;28;1914;-58
2022/02/16 20:50:11;;;;;;;;;;;;;;;22.06;26.21;94618.50;10355723;28;1488;-56
2022/02/16 20:55:11;;;;;;;;;;;;;;;22.09;26.05;94596.75;10358580;28;1950;-56
2022/02/16 21:00:12;;;;;;;;;;;;;;;22.09;26.12;94604.66;10347156;28;1500;-57
2022/02/16 21:05:13;;;;;;;;;;;;;;;22.19;26.65;94580.63;10355616;28;1894;-56
2022/02/16 21:10:15;;;;;;;;;;;;;;;22.15;26.29;94566.50;10348914;28;1929;-56
2022/02/16 21:15:15;;;;;;;;;;;;;;;22.08;26.12;94568.81;10339156;28;1905;-58
2022/02/16 21:20:16;;;;;;;;;;;;;;;22.08;26.26;94568.81;10344756;28;1848;-56
2022/02/16 21:25:17;;;;;;;;;;;;;;;22.04;26.00;94575.78;10359948;28;2065;-59
2022/02/16 21:30:17;;;;;;;;;;;;;;;22.02;26.12;94588.53;10345833;28;2086;-56
2022/02/16 21:35:17;;;;;;;;;;;;;;;22.00;26.06;94582.00;10351936;28;1875;-58
2022/02/16 21:40:18;;;;;;;;;;;;;;;21.99;25.92;94585.75;10344439;28;2018;-56
2022/02/16 21:45:19;;;;;;;;;;;;;;;21.97;25.83;94574.72;10349615;28;2121;-55
2022/02/16 21:50:20;;;;;;;;;;;;;;;21.97;26.26;94570.19;10363761;28;1777;-56
2022/02/16 21:55:20;;;;;;;;;;;;;;;21.95;25.84;94553.16;10357523;28;1982;-58
2022/02/16 22:00:20;;;;;;;;;;;;;;;21.94;25.79;94565.56;10355482;28;1902;-59
2022/02/16 22:05:21;;;;;;;;;;;;;;;21.91;25.90;94544.31;10353800;28;1439;-57
2022/02/16 22:10:21;;;;;;;;;;;;;;;21.91;26.08;94526.59;10357166;28;1777;-59
2022/02/16 22:15:25;;;;;;;;;;;;;;;21.91;26.07;94537.13;10358496;28;1856;-59
2022/02/16 22:20:26;;;;;;;;;;;;;;;21.90;26.08;94517.13;10342351;28;1910;-56
2022/02/16 22:25:28;;;;;;;;;;;;;;;21.88;26.04;94492.13;10335484;28;1898;-58
2022/02/16 22:30:30;;;;;;;;;;;;;;;21.89;25.85;94491.81;10327283;28;2007;-58
2022/02/16 22:35:30;;;;;;;;;;;;;;;21.88;26.10;94495.56;10355458;28;1935;-58
2022/02/16 22:40:30;;;;;;;;;;;;;;;21.86;26.26;94480.03;10371936;28;1967;-55
2022/02/16 22:45:31;;;;;;;;;;;;;;;21.85;25.85;94456.59;10362297;28;1908;-56
2022/02/16 22:50:31;;;;;;;;;;;;;;;21.87;26.03;94459.69;10359924;28;1913;-55
2022/02/16 22:55:32;;;;;;;;;;;;;;;21.83;26.05;94478.03;10365059;28;1848;-56
2022/02/16 23:00:35;;;;;;;;;;;;;;;21.83;25.87;94480.66;10371093;28;1906;-59
2022/02/16 23:10:54;;;;;;;;;;;;;;;21.82;26.07;94475.72;10345104;28;1808;-60
2022/02/16 23:15:56;;;;;;;;;;;;;;;21.81;25.99;94472.28;10349602;28;1889;-57
2022/02/16 23:20:56;;;;;;;;;;;;;;;21.82;26.28;94462.50;10349737;28;2212;-58
2022/02/16 23:25:56;;;;;;;;;;;;;;;21.78;26.09;94461.56;10357095;28;1652;-58
2022/02/16 23:30:57;;;;;;;;;;;;;;;21.80;26.10;94469.94;10345166;28;1991;-56
2022/02/16 23:35:57;;;;;;;;;;;;;;;21.77;26.12;94478.47;10338336;28;1964;-58
2022/02/16 23:40:57;;;;;;;;;;;;;;;21.78;26.23;94466.84;10357656;28;1898;-58
2022/02/16 23:45:59;;;;;;;;;;;;;;;21.78;26.43;94486.06;10327414;28;2001;-57
2022/02/16 23:50:59;;;;;;;;;;;;;;;21.76;26.21;94466.38;10323853;28;2294;-58
2022/02/16 23:55:59;;;;;;;;;;;;;;;21.75;26.31;94486.69;10338018;28;2286;-56
